createdAt,value
2018-09-30T00:01:23.092Z,86.02
2018-09-30T00:03:52.075Z,85.59
2018-09-30T00:06:20.857Z,86.23
2018-09-30T00:08:49.718Z,85.80
2018-09-30T00:11:18.615Z,85.18
2018-09-30T00:13:47.415Z,85.12
2018-09-30T00:16:16.300Z,86.03
2018-09-30T00:18:45.165Z,86.26
2018-09-30T00:21:14.019Z,85.22
2018-09-30T00:23:47.866Z,85.57
2018-09-30T00:26:21.774Z,85.89
2018-09-30T00:28:50.617Z,85.03
2018-09-30T00:31:19.419Z,84.95
2018-09-30T00:33:53.255Z,85.45
2018-09-30T00:36:22.104Z,85.38
2018-09-30T00:38:50.943Z,85.33
2018-09-30T00:41:19.772Z,85.70
2018-09-30T00:43:48.561Z,85.94
2018-09-30T00:46:17.423Z,85.52
2018-09-30T00:48:46.291Z,85.95
2018-09-30T00:51:15.194Z,84.02
2018-09-30T00:53:45.358Z,84.95
2018-09-30T00:56:14.169Z,84.53
2018-09-30T00:58:42.974Z,85.49
2018-09-30T01:01:11.834Z,85.22
2018-09-30T01:03:41.641Z,85.18
2018-09-30T01:06:10.625Z,85.04
2018-09-30T01:08:39.450Z,85.73
2018-09-30T01:11:08.261Z,85.88
2018-09-30T01:13:37.397Z,85.86
2018-09-30T01:16:06.254Z,85.92
2018-09-30T01:18:35.107Z,85.47
2018-09-30T01:21:03.925Z,86.65
2018-09-30T01:23:32.763Z,85.90
2018-09-30T01:26:01.670Z,87.51
2018-09-30T01:28:30.611Z,87.22
2018-09-30T01:30:59.558Z,87.74
2018-09-30T01:33:28.382Z,87.79
2018-09-30T01:35:57.186Z,87.16
2018-09-30T01:38:26.397Z,86.66
2018-09-30T01:40:55.217Z,86.69
2018-09-30T01:43:24.047Z,86.16
2018-09-30T01:45:52.905Z,86.09
2018-09-30T01:48:21.714Z,86.46
2018-09-30T01:50:50.538Z,86.99
2018-09-30T01:53:19.410Z,86.48
2018-09-30T01:55:48.206Z,86.64
2018-09-30T01:58:17.014Z,86.50
2018-09-30T02:00:45.898Z,86.00
2018-09-30T02:03:14.686Z,86.12
2018-09-30T02:05:43.550Z,86.31
2018-09-30T02:08:12.398Z,86.78
2018-09-30T02:10:41.325Z,86.70
2018-09-30T02:13:10.121Z,86.37
2018-09-30T02:15:38.945Z,85.81
2018-09-30T02:18:07.817Z,86.39
2018-09-30T02:20:36.630Z,86.16
2018-09-30T02:23:05.440Z,85.38
2018-09-30T02:25:34.323Z,85.61
2018-09-30T02:28:03.158Z,86.39
2018-09-30T02:30:32.008Z,86.45
2018-09-30T02:33:00.919Z,86.53
2018-09-30T02:35:29.832Z,87.47
2018-09-30T02:37:58.725Z,86.61
2018-09-30T02:40:27.593Z,86.80
2018-09-30T02:42:56.418Z,86.44
2018-09-30T02:45:25.294Z,86.67
2018-09-30T02:47:54.088Z,86.65
2018-09-30T02:50:22.906Z,86.59
2018-09-30T02:52:51.783Z,87.05
2018-09-30T02:55:20.604Z,86.89
2018-09-30T02:57:49.406Z,86.76
2018-09-30T03:00:18.229Z,86.59
2018-09-30T03:02:47.115Z,87.31
2018-09-30T03:05:15.939Z,87.03
2018-09-30T03:07:49.922Z,86.39
2018-09-30T03:10:18.743Z,86.35
2018-09-30T03:12:47.586Z,86.32
2018-09-30T03:15:16.448Z,86.65
2018-09-30T03:17:45.274Z,86.85
2018-09-30T03:20:14.083Z,86.80
2018-09-30T03:22:42.944Z,87.13
2018-09-30T03:25:11.766Z,87.45
2018-09-30T03:27:40.597Z,86.75
2018-09-30T03:30:09.457Z,87.11
2018-09-30T03:32:38.277Z,86.81
2018-09-30T03:35:07.160Z,87.17
2018-09-30T03:37:37.258Z,87.22
2018-09-30T03:40:06.114Z,87.07
2018-09-30T03:42:35.032Z,86.71
2018-09-30T03:45:03.897Z,86.66
2018-09-30T03:47:32.751Z,87.32
2018-09-30T03:50:01.602Z,87.65
2018-09-30T03:52:30.501Z,86.84
2018-09-30T03:54:59.394Z,87.95
2018-09-30T03:57:28.191Z,86.29
2018-09-30T03:59:56.998Z,87.12
2018-09-30T04:02:25.859Z,86.58
2018-09-30T04:04:54.746Z,87.25
2018-09-30T04:07:23.573Z,86.69
2018-09-30T04:09:52.401Z,87.32
2018-09-30T04:12:21.251Z,86.97
2018-09-30T04:14:50.074Z,86.65
2018-09-30T04:17:18.935Z,87.17
2018-09-30T04:19:47.751Z,86.71
2018-09-30T04:22:16.609Z,86.75
2018-09-30T04:24:47.202Z,87.43
2018-09-30T04:27:15.995Z,86.41
2018-09-30T04:29:44.807Z,86.97
2018-09-30T04:32:15.016Z,87.60
2018-09-30T04:34:43.837Z,87.47
2018-09-30T04:37:12.689Z,87.29
2018-09-30T04:39:41.560Z,87.31
2018-09-30T04:42:10.394Z,87.68
2018-09-30T04:44:39.213Z,88.26
2018-09-30T04:47:08.058Z,88.34
2018-09-30T04:49:36.903Z,88.24
2018-09-30T04:52:05.766Z,88.26
2018-09-30T04:54:34.630Z,88.61
2018-09-30T04:57:03.479Z,87.86
2018-09-30T04:59:32.355Z,88.11
2018-09-30T05:02:01.334Z,87.41
2018-09-30T05:04:30.160Z,88.48
2018-09-30T05:06:59.016Z,87.58
2018-09-30T05:09:27.873Z,87.50
2018-09-30T05:11:56.766Z,87.47
2018-09-30T05:14:25.645Z,87.59
2018-09-30T05:16:56.006Z,87.66
2018-09-30T05:19:24.927Z,86.51
2018-09-30T05:21:53.736Z,87.28
2018-09-30T05:24:22.639Z,86.86
2018-09-30T05:26:51.502Z,86.74
2018-09-30T05:29:20.319Z,86.98
2018-09-30T05:31:50.499Z,86.96
2018-09-30T05:34:19.359Z,87.40
2018-09-30T05:36:48.179Z,86.61
2018-09-30T05:39:17.049Z,85.92
2018-09-30T05:41:45.902Z,86.59
2018-09-30T05:44:14.750Z,85.49
2018-09-30T05:46:44.828Z,86.36
2018-09-30T05:49:13.710Z,86.44
2018-09-30T05:51:42.697Z,86.88
2018-09-30T05:54:11.533Z,86.52
2018-09-30T05:56:40.317Z,86.63
2018-09-30T05:59:09.186Z,87.07
2018-09-30T06:01:38.107Z,86.45
2018-09-30T06:04:07.059Z,86.66
2018-09-30T06:06:35.880Z,86.61
2018-09-30T06:09:08.179Z,86.99
2018-09-30T06:11:36.961Z,86.17
2018-09-30T06:14:05.966Z,86.31
2018-09-30T06:16:36.116Z,86.58
2018-09-30T06:19:05.065Z,86.72
2018-09-30T06:21:33.963Z,87.17
2018-09-30T06:24:02.905Z,86.73
2018-09-30T06:26:31.728Z,86.44
2018-09-30T06:29:00.599Z,87.34
2018-09-30T06:31:29.514Z,87.23
2018-09-30T06:33:59.787Z,87.88
2018-09-30T06:36:28.745Z,86.90
2018-09-30T06:38:58.006Z,87.54
2018-09-30T06:41:27.069Z,87.33
2018-09-30T06:43:57.267Z,87.55
2018-09-30T06:46:26.189Z,87.17
2018-09-30T06:48:55.048Z,87.65
2018-09-30T06:51:23.939Z,86.75
2018-09-30T06:53:52.809Z,86.72
2018-09-30T06:56:21.734Z,87.75
2018-09-30T06:58:51.910Z,87.29
2018-09-30T07:01:20.740Z,87.11
2018-09-30T07:03:49.667Z,87.72
2018-09-30T07:06:18.497Z,87.48
2018-09-30T07:08:47.387Z,87.62
2018-09-30T07:11:16.368Z,86.44
2018-09-30T07:13:45.221Z,86.98
2018-09-30T07:16:14.079Z,86.40
2018-09-30T07:18:42.963Z,86.22
2018-09-30T07:21:11.818Z,86.48
2018-09-30T07:23:40.684Z,86.88
2018-09-30T07:26:10.822Z,86.34
2018-09-30T07:28:39.666Z,85.33
2018-09-30T07:31:08.814Z,86.26
2018-09-30T07:33:39.004Z,85.36
2018-09-30T07:36:07.921Z,85.67
2018-09-30T07:38:36.980Z,85.85
2018-09-30T07:41:07.281Z,86.17
2018-09-30T07:43:36.172Z,86.18
2018-09-30T07:46:05.041Z,85.70
2018-09-30T07:48:33.863Z,85.06
2018-09-30T07:51:02.778Z,84.63
2018-09-30T07:53:31.631Z,84.83
2018-09-30T07:56:00.530Z,83.88
2018-09-30T07:58:30.754Z,84.06
2018-09-30T08:01:02.311Z,84.38
2018-09-30T08:03:31.166Z,85.07
2018-09-30T08:06:00.027Z,84.80
2018-09-30T08:08:30.200Z,84.32
2018-09-30T08:10:59.069Z,84.37
2018-09-30T08:13:27.982Z,84.31
2018-09-30T08:15:56.851Z,85.08
2018-09-30T08:18:25.762Z,85.29
2018-09-30T08:20:54.582Z,84.57
2018-09-30T08:23:23.446Z,84.30
2018-09-30T08:25:52.326Z,84.10
2018-09-30T08:28:21.174Z,84.14
2018-09-30T08:30:50.118Z,84.88
2018-09-30T08:33:18.962Z,84.94
2018-09-30T08:35:53.062Z,84.89
2018-09-30T08:38:27.125Z,83.92
2018-09-30T08:41:03.312Z,85.02
2018-09-30T08:43:33.620Z,83.77
2018-09-30T08:46:02.547Z,83.51
2018-09-30T08:48:31.715Z,83.52
2018-09-30T08:51:00.578Z,83.88
2018-09-30T08:53:29.525Z,84.36
2018-09-30T08:55:58.961Z,83.85
2018-09-30T08:58:28.657Z,83.36
2018-09-30T09:00:57.573Z,83.56
2018-09-30T09:03:26.971Z,83.34
2018-09-30T09:05:55.917Z,83.55
2018-09-30T09:08:24.772Z,83.82
2018-09-30T09:10:53.675Z,83.22
2018-09-30T09:13:22.568Z,83.13
2018-09-30T09:15:51.402Z,83.39
2018-09-30T09:18:20.397Z,82.78
2018-09-30T09:20:49.410Z,83.43
2018-09-30T09:23:18.341Z,83.32
2018-09-30T09:25:47.285Z,83.85
2018-09-30T09:28:16.128Z,83.52
2018-09-30T09:30:45.023Z,84.16
2018-09-30T09:33:15.121Z,83.21
2018-09-30T09:35:44.020Z,83.80
2018-09-30T09:38:12.863Z,84.57
2018-09-30T09:40:43.015Z,85.06
2018-09-30T09:43:11.874Z,83.65
2018-09-30T09:45:40.716Z,83.52
2018-09-30T09:48:09.757Z,83.73
2018-09-30T09:50:38.607Z,83.85
2018-09-30T09:53:07.558Z,83.78
2018-09-30T09:55:37.814Z,83.32
2018-09-30T09:58:06.671Z,83.80
2018-09-30T10:00:40.650Z,83.46
2018-09-30T10:03:09.567Z,82.77
2018-09-30T10:05:38.427Z,82.66
2018-09-30T10:08:07.704Z,82.73
2018-09-30T10:10:36.747Z,82.94
2018-09-30T10:13:05.703Z,82.62
2018-09-30T10:15:34.643Z,82.34
2018-09-30T10:18:03.537Z,82.31
2018-09-30T10:20:32.392Z,82.01
2018-09-30T10:23:02.639Z,81.92
2018-09-30T10:25:31.498Z,82.02
2018-09-30T10:28:00.323Z,81.47
2018-09-30T10:30:29.267Z,81.62
2018-09-30T10:32:58.131Z,81.70
2018-09-30T10:35:27.059Z,82.03
2018-09-30T10:37:58.734Z,81.55
2018-09-30T10:40:27.580Z,81.84
2018-09-30T10:42:56.418Z,81.67
2018-09-30T10:45:25.254Z,81.96
2018-09-30T10:47:54.131Z,81.73
2018-09-30T10:50:22.934Z,81.60
2018-09-30T10:52:51.744Z,81.56
2018-09-30T10:55:20.598Z,81.56
2018-09-30T10:57:49.430Z,81.40
2018-09-30T11:00:18.246Z,81.69
2018-09-30T11:02:47.062Z,81.34
2018-09-30T11:05:17.581Z,81.38
2018-09-30T11:07:46.398Z,81.34
2018-09-30T11:10:15.317Z,81.15
2018-09-30T11:12:44.091Z,80.92
2018-09-30T11:15:12.919Z,79.75
2018-09-30T11:17:43.025Z,80.09
2018-09-30T11:20:11.876Z,79.05
2018-09-30T11:22:40.701Z,79.02
2018-09-30T11:25:10.807Z,78.49
2018-09-30T11:27:39.627Z,78.26
2018-09-30T11:30:08.494Z,78.32
2018-09-30T11:32:37.359Z,78.58
2018-09-30T11:35:06.259Z,77.76
2018-09-30T11:37:36.499Z,78.01
2018-09-30T11:40:06.066Z,78.22
2018-09-30T11:42:34.973Z,78.01
2018-09-30T11:45:03.885Z,78.88
2018-09-30T11:47:32.704Z,78.43
2018-09-30T11:50:01.595Z,77.76
2018-09-30T11:52:30.452Z,77.34
2018-09-30T11:54:59.291Z,77.35
2018-09-30T11:57:28.167Z,77.18
2018-09-30T11:59:56.999Z,78.42
2018-09-30T12:02:25.949Z,78.18
2018-09-30T12:04:54.928Z,77.55
2018-09-30T12:07:23.783Z,77.53
2018-09-30T12:09:52.610Z,76.89
2018-09-30T12:12:21.492Z,77.04
2018-09-30T12:14:50.358Z,77.28
2018-09-30T12:17:20.454Z,76.89
2018-09-30T12:19:49.303Z,77.18
2018-09-30T12:22:18.140Z,77.26
2018-09-30T12:24:47.015Z,76.47
2018-09-30T12:27:15.817Z,76.55
2018-09-30T12:29:44.641Z,76.65
2018-09-30T12:32:13.531Z,76.26
2018-09-30T12:34:42.400Z,75.73
2018-09-30T12:37:11.328Z,75.80
2018-09-30T12:39:40.142Z,75.83
2018-09-30T12:42:10.199Z,75.68
2018-09-30T12:44:39.055Z,75.30
2018-09-30T12:47:07.890Z,75.29
2018-09-30T12:49:36.731Z,75.53
2018-09-30T12:52:05.643Z,75.24
2018-09-30T12:54:34.490Z,75.48
2018-09-30T12:57:03.338Z,75.42
2018-09-30T12:59:33.450Z,75.43
2018-09-30T13:02:02.576Z,75.15
2018-09-30T13:04:31.436Z,75.13
2018-09-30T13:07:00.262Z,74.36
2018-09-30T13:09:29.228Z,75.29
2018-09-30T13:11:58.059Z,74.52
2018-09-30T13:14:26.899Z,74.05
2018-09-30T13:16:55.804Z,74.89
2018-09-30T13:19:24.677Z,73.89
2018-09-30T13:21:53.654Z,74.86
2018-09-30T13:24:22.505Z,74.45
2018-09-30T13:26:51.335Z,74.40
2018-09-30T13:29:20.239Z,74.24
2018-09-30T13:31:49.207Z,74.67
2018-09-30T13:34:18.018Z,74.94
2018-09-30T13:36:46.916Z,74.94
2018-09-30T13:39:17.263Z,75.19
2018-09-30T13:41:46.114Z,74.86
2018-09-30T13:44:15.055Z,74.96
2018-09-30T13:46:43.892Z,74.48
2018-09-30T13:49:15.605Z,74.42
2018-09-30T13:51:45.819Z,74.86
2018-09-30T13:54:14.822Z,73.95
2018-09-30T13:56:43.687Z,74.66
2018-09-30T13:59:12.527Z,74.24
2018-09-30T14:01:42.635Z,74.73
2018-09-30T14:04:14.045Z,74.06
2018-09-30T14:06:42.888Z,73.76
2018-09-30T14:09:11.882Z,73.97
2018-09-30T14:11:40.734Z,74.42
2018-09-30T14:14:09.577Z,74.87
2018-09-30T14:16:38.473Z,74.32
2018-09-30T14:19:07.403Z,74.65
2018-09-30T14:21:36.280Z,74.24
2018-09-30T14:24:05.094Z,74.86
2018-09-30T14:26:33.907Z,74.11
2018-09-30T14:29:03.996Z,74.58
2018-09-30T14:31:32.843Z,74.42
2018-09-30T14:34:01.782Z,74.16
2018-09-30T14:36:31.847Z,74.34
2018-09-30T14:39:00.663Z,74.35
2018-09-30T14:41:29.470Z,74.87
2018-09-30T14:43:58.651Z,75.49
2018-09-30T14:46:27.459Z,75.20
2018-09-30T14:48:56.274Z,75.41
2018-09-30T14:51:25.130Z,75.44
2018-09-30T14:53:55.189Z,75.46
2018-09-30T14:56:24.182Z,75.77
2018-09-30T14:58:53.124Z,76.19
2018-09-30T15:01:21.967Z,76.13
2018-09-30T15:03:52.185Z,75.94
2018-09-30T15:06:21.176Z,75.61
2018-09-30T15:08:51.406Z,76.12
2018-09-30T15:13:54.378Z,78.39
2018-09-30T15:16:23.247Z,78.42
2018-09-30T15:18:53.321Z,79.69
2018-09-30T15:21:22.137Z,80.07
2018-09-30T15:23:50.971Z,80.56
2018-09-30T15:26:19.946Z,80.76
2018-09-30T15:28:48.812Z,81.23
2018-09-30T15:31:20.362Z,81.44
2018-09-30T15:33:49.191Z,81.79
2018-09-30T15:36:18.139Z,81.98
2018-09-30T15:38:47.568Z,82.32
2018-09-30T15:41:16.443Z,82.33
2018-09-30T15:43:45.284Z,83.06
2018-09-30T15:46:14.159Z,84.04
2018-09-30T15:48:43.024Z,84.44
2018-09-30T15:51:11.912Z,84.66
2018-09-30T15:53:42.176Z,85.70
2018-09-30T15:56:12.458Z,86.29
2018-09-30T15:58:41.312Z,86.40
2018-09-30T16:01:10.240Z,86.52
2018-09-30T16:03:40.430Z,87.17
2018-09-30T16:06:09.260Z,87.42
2018-09-30T16:08:38.114Z,86.38
2018-09-30T16:11:08.683Z,86.70
2018-09-30T16:13:37.542Z,86.89
2018-09-30T16:16:06.482Z,86.81
2018-09-30T16:18:36.641Z,85.74
2018-09-30T16:21:05.663Z,86.30
2018-09-30T16:23:34.980Z,85.90
2018-09-30T16:26:03.918Z,86.51
2018-09-30T16:28:32.767Z,86.87
2018-09-30T16:31:01.737Z,86.62
2018-09-30T16:33:33.416Z,87.09
2018-09-30T16:36:03.028Z,87.14
2018-09-30T16:38:31.955Z,86.80
2018-09-30T16:41:00.897Z,87.28
2018-09-30T16:43:29.822Z,87.65
2018-09-30T16:45:59.969Z,88.13
2018-09-30T16:48:30.297Z,87.69
2018-09-30T16:50:59.207Z,87.72
2018-09-30T16:53:28.388Z,87.97
2018-09-30T16:55:58.240Z,88.41
2018-09-30T16:58:28.567Z,88.40
2018-09-30T17:00:57.460Z,88.10
2018-09-30T17:03:26.461Z,88.26
2018-09-30T17:05:56.756Z,88.90
2018-09-30T17:08:25.718Z,89.00
2018-09-30T17:10:54.718Z,89.02
2018-09-30T17:13:23.954Z,89.17
2018-09-30T17:15:52.920Z,89.39
2018-09-30T17:18:21.755Z,89.03
2018-09-30T17:20:50.751Z,89.19
2018-09-30T17:23:19.742Z,89.67
2018-09-30T17:25:48.921Z,89.54
2018-09-30T17:28:17.912Z,89.73
2018-09-30T17:30:47.462Z,90.07
2018-09-30T17:33:16.349Z,89.87
2018-09-30T17:35:45.201Z,90.03
2018-09-30T17:38:14.048Z,90.39
2018-09-30T17:40:42.958Z,90.14
2018-09-30T17:43:11.899Z,90.00
2018-09-30T17:45:40.779Z,89.75
2018-09-30T17:48:11.442Z,90.02
2018-09-30T17:50:40.511Z,90.05
2018-09-30T17:53:09.539Z,90.13
2018-09-30T17:55:38.443Z,90.21
2018-09-30T17:58:07.323Z,90.18
2018-09-30T18:00:38.817Z,90.58
2018-09-30T18:03:09.215Z,89.83
2018-09-30T18:05:39.679Z,89.97
2018-09-30T18:08:09.586Z,90.33
2018-09-30T18:10:39.528Z,90.74
2018-09-30T18:13:09.282Z,90.70
2018-09-30T18:15:39.353Z,90.34
2018-09-30T18:18:08.547Z,90.63
2018-09-30T18:20:40.095Z,90.99
2018-09-30T18:23:10.604Z,90.90
2018-09-30T18:25:42.341Z,91.14
2018-09-30T18:28:12.863Z,90.78
2018-09-30T18:30:44.642Z,90.85
2018-09-30T18:33:14.970Z,91.12
2018-09-30T18:35:45.272Z,90.98
2018-09-30T18:38:14.400Z,91.45
2018-09-30T18:40:48.883Z,91.36
2018-09-30T18:43:20.372Z,91.42
2018-09-30T18:45:50.860Z,91.54
2018-09-30T18:48:20.692Z,91.22
2018-09-30T18:50:51.657Z,91.79
2018-09-30T18:53:21.099Z,91.69
2018-09-30T18:55:50.159Z,91.36
2018-09-30T18:58:19.097Z,91.64
2018-09-30T19:00:48.053Z,91.29
2018-09-30T19:03:17.007Z,91.49
2018-09-30T19:05:47.313Z,90.95
2018-09-30T19:08:16.165Z,90.81
2018-09-30T19:10:45.011Z,90.96
2018-09-30T19:13:13.889Z,90.92
2018-09-30T19:15:43.189Z,91.07
2018-09-30T19:18:12.006Z,91.22
2018-09-30T19:20:42.107Z,90.30
2018-09-30T19:23:11.078Z,90.98
2018-09-30T19:25:40.000Z,91.40
2018-09-30T19:28:11.487Z,90.69
2018-09-30T19:30:40.375Z,90.82
2018-09-30T19:33:09.237Z,91.07
2018-09-30T19:35:39.417Z,91.12
2018-09-30T19:38:08.558Z,91.04
2018-09-30T19:40:37.624Z,91.53
2018-09-30T19:43:08.106Z,91.49
2018-09-30T19:45:37.032Z,91.37
2018-09-30T19:48:06.872Z,91.22
2018-09-30T19:50:35.851Z,91.14
2018-09-30T19:53:04.785Z,91.32
2018-09-30T19:55:33.687Z,91.54
2018-09-30T19:58:03.888Z,90.63
2018-09-30T20:00:32.726Z,91.12
2018-09-30T20:03:01.559Z,91.16
2018-09-30T20:05:30.446Z,90.87
2018-09-30T20:07:59.415Z,90.89
2018-09-30T20:10:28.311Z,90.34
2018-09-30T20:12:58.361Z,90.65
2018-09-30T20:15:27.436Z,90.71
2018-09-30T20:17:56.292Z,90.30
2018-09-30T20:20:25.556Z,89.99
2018-09-30T20:22:54.412Z,90.02
2018-09-30T20:25:23.254Z,89.95
2018-09-30T20:27:53.362Z,89.62
2018-09-30T20:30:22.191Z,89.37
2018-09-30T20:32:51.021Z,89.83
2018-09-30T20:35:19.878Z,90.04
2018-09-30T20:37:48.698Z,89.96
2018-09-30T20:40:17.506Z,89.55
2018-09-30T20:42:46.382Z,89.73
2018-09-30T20:45:16.635Z,89.61
2018-09-30T20:47:46.874Z,90.06
2018-09-30T20:50:17.319Z,89.76
2018-09-30T20:52:46.157Z,89.31
2018-09-30T20:55:14.966Z,89.55
2018-09-30T20:57:43.775Z,89.23
2018-09-30T21:00:12.651Z,89.75
2018-09-30T21:02:41.472Z,89.38
2018-09-30T21:06:16.570Z,89.20
2018-09-30T21:08:46.250Z,89.15
2018-09-30T21:11:15.142Z,89.02
2018-09-30T21:13:44.115Z,89.28
2018-09-30T21:16:13.434Z,89.10
2018-09-30T21:18:42.440Z,88.51
2018-09-30T21:21:11.295Z,88.56
2018-09-30T21:23:40.115Z,88.64
2018-09-30T21:26:09.027Z,88.22
2018-09-30T21:28:37.868Z,88.05
2018-09-30T21:31:06.831Z,87.25
2018-09-30T21:33:35.804Z,87.42
2018-09-30T21:36:04.663Z,87.83
2018-09-30T21:38:33.584Z,87.85
2018-09-30T21:41:02.437Z,87.88
2018-09-30T21:43:31.302Z,87.61
2018-09-30T21:46:00.183Z,87.35
2018-09-30T21:48:29.069Z,88.02
2018-09-30T21:50:57.993Z,87.68
2018-09-30T21:53:26.932Z,88.10
2018-09-30T21:55:55.888Z,87.76
2018-09-30T21:58:24.765Z,88.35
2018-09-30T22:01:02.850Z,88.40
2018-09-30T22:03:31.936Z,88.86
2018-09-30T22:06:00.898Z,88.87
2018-09-30T22:08:29.858Z,88.87
2018-09-30T22:10:58.750Z,89.21
2018-09-30T22:13:27.629Z,89.51
2018-09-30T22:15:56.549Z,89.39
2018-09-30T22:18:25.668Z,89.25
2018-09-30T22:20:54.561Z,89.97
2018-09-30T22:23:23.445Z,89.73
2018-09-30T22:25:52.377Z,89.86
2018-09-30T22:28:21.249Z,89.67
2018-09-30T22:30:50.079Z,91.07
2018-09-30T22:33:18.895Z,90.68
2018-09-30T22:35:47.760Z,91.26
2018-09-30T22:38:16.585Z,90.94
2018-09-30T22:40:45.411Z,91.26
2018-09-30T22:43:15.738Z,91.08
2018-09-30T22:45:44.529Z,91.15
2018-09-30T22:48:13.344Z,91.53
2018-09-30T22:50:42.230Z,91.72
2018-09-30T22:53:11.114Z,91.46
2018-09-30T22:55:39.946Z,91.69
2018-09-30T22:58:08.792Z,91.57
2018-09-30T23:00:37.659Z,91.95
2018-09-30T23:03:06.470Z,91.60
2018-09-30T23:05:35.302Z,91.74
2018-09-30T23:08:04.233Z,92.05
2018-09-30T23:10:33.043Z,92.19
2018-09-30T23:13:01.860Z,92.02
2018-09-30T23:15:30.726Z,91.79
2018-09-30T23:17:59.562Z,92.33
2018-09-30T23:20:28.385Z,92.11
2018-09-30T23:22:57.182Z,92.54
2018-09-30T23:25:26.102Z,92.34
2018-09-30T23:27:54.898Z,92.39
2018-09-30T23:30:23.686Z,91.83
2018-09-30T23:32:52.550Z,91.96
2018-09-30T23:35:21.359Z,91.48
2018-09-30T23:37:50.169Z,91.70
2018-09-30T23:40:19.066Z,91.84
2018-09-30T23:42:47.900Z,92.01
2018-09-30T23:45:16.792Z,91.57
2018-09-30T23:47:47.035Z,91.58
2018-09-30T23:50:15.871Z,91.68
2018-09-30T23:52:44.741Z,91.65
2018-09-30T23:55:13.575Z,91.68
2018-09-30T23:57:42.365Z,91.45
